.
WxDataArchive / Data Records for 2016-06-15
2016-06-14 June 2016 2016-06-16

Data Records for Wednesday, 15 June 2016

Time	Temp	Chill	HIndex	Humid	Dewpt	 Wind 	HiWind	WindDir	Rain 	Barom
-----	----	-----	------	-----	-----	------	------	-------	-----	-----
00:00	69.8	69.8	69.8	70	59.6	0	1	68	0.00	29.831 
00:05	69.8	69.8	69.8	70	59.6	0	2	68	0.00	29.831 
00:10	69.6	69.6	69.6	71	59.8	0	2	68	0.00	29.831 
00:15	69.4	69.4	69.4	71	59.6	0	3	68	0.00	29.832 
00:20	69.4	69.4	69.4	71	59.6	0	3	68	0.00	29.832 
00:25	69.3	69.3	69.3	71	59.5	1	3	68	0.00	29.832 
00:30	69.1	69.1	69.1	71	59.3	0	2	68	0.00	29.836 
00:35	69.1	69.1	69.1	71	59.3	1	3	68	0.00	29.836 
00:40	69.1	69.1	69.1	71	59.3	1	3	68	0.00	29.836 
00:45	68.9	68.9	68.9	71	59.1	1	3	45	0.00	29.840 
00:50	68.8	68.8	68.8	71	59.0	1	3	45	0.00	29.840 
00:55	68.6	68.6	68.6	70	58.4	2	4	68	0.00	29.840 
01:00	68.4	68.4	68.4	70	58.2	1	3	45	0.00	29.838 
01:05	68.3	68.3	68.3	70	58.1	1	4	45	0.00	29.838 
01:10	68.1	68.1	68.1	70	57.9	0	3	45	0.00	29.838 
01:15	67.9	67.9	67.9	70	57.7	1	4	45	0.00	29.843 
01:20	67.8	67.8	67.8	69	57.2	1	4	45	0.00	29.843 
01:25	67.6	67.6	67.6	69	57.1	1	3	45	0.00	29.843 
01:30	67.3	67.3	67.3	69	56.8	0	4	45	0.00	29.839 
01:35	67.1	67.1	67.1	69	56.6	1	4	90	0.00	29.839 
01:40	67.1	67.1	67.1	69	56.6	1	3	90	0.00	29.839 
01:45	66.8	66.8	66.8	69	56.3	0	2	90	0.00	29.835 
01:50	66.6	66.6	66.6	69	56.1	0	1	90	0.00	29.835 
01:55	66.4	66.4	66.4	69	55.9	1	2	90	0.00	29.835 
02:00	66.3	66.3	66.3	69	55.8	0	2	90	0.00	29.830 
02:05	66.1	66.1	66.1	69	55.6	0	2	90	0.00	29.830 
02:10	66.0	66.0	66.0	68	55.1	0	2	90	0.00	29.830 
02:15	65.8	65.8	65.8	68	54.9	1	3	90	0.00	29.824 
02:20	65.6	65.6	65.6	68	54.7	1	4	45	0.00	29.824 
02:25	65.5	65.5	65.5	69	55.1	0	2	45	0.00	29.824 
02:30	65.3	65.3	65.3	69	54.9	0	2	45	0.00	29.817 
02:35	65.3	65.3	65.3	69	54.9	0	2	45	0.00	29.817 
02:40	65.2	65.2	65.2	69	54.8	0	1	45	0.00	29.817 
02:45	65.0	65.0	65.0	70	55.0	0	2	45	0.00	29.816 
02:50	65.0	65.0	65.0	70	55.0	0	2	45	0.00	29.816 
02:55	64.8	64.8	64.8	70	54.8	0	1	45	0.00	29.816 
03:00	64.8	64.8	64.8	70	54.8	0	1	45	0.00	29.818 
03:05	64.8	64.8	64.8	70	54.8	0	3	45	0.00	29.818 
03:10	64.7	64.7	64.7	70	54.7	0	2	45	0.00	29.818 
03:15	64.7	64.7	64.7	70	54.7	0	1	45	0.00	29.821 
03:20	64.7	64.7	64.7	71	55.1	0	1	45	0.00	29.821 
03:25	64.7	64.7	64.7	70	54.7	0	2	45	0.00	29.821 
03:30	64.7	64.7	64.7	70	54.7	0	1	45	0.00	29.816 
03:35	64.7	64.7	64.7	71	55.1	0	1	45	0.00	29.816 
03:40	64.7	64.7	64.7	71	55.1	0	2	45	0.00	29.816 
03:45	64.5	64.5	64.5	71	54.9	0	1	45	0.00	29.810 
03:50	64.5	64.5	64.5	72	55.3	0	1	45	0.00	29.810 
03:55	64.5	64.5	64.5	72	55.3	0	1	45	0.00	29.810 
04:00	64.3	64.3	64.3	72	55.1	0	1	45	0.00	29.801 
04:05	64.2	64.2	64.2	73	55.4	0	0	---	0.00	29.801 
04:10	64.2	64.2	64.2	73	55.4	0	2	45	0.00	29.801 
04:15	64.0	64.0	64.0	73	55.2	0	2	45	0.00	29.798 
04:20	64.0	64.0	64.0	73	55.2	0	1	45	0.00	29.798 
04:25	63.9	63.9	63.9	73	55.1	0	0	---	0.00	29.798 
04:30	63.9	63.9	63.9	74	55.4	0	0	---	0.00	29.798 
04:35	63.9	63.9	63.9	74	55.4	0	0	---	0.00	29.798 
04:40	63.9	63.9	63.9	74	55.4	1	3	45	0.00	29.798 
04:45	63.9	63.9	63.9	74	55.4	0	1	45	0.00	29.795 
04:50	63.9	63.9	63.9	74	55.4	0	2	45	0.00	29.795 
04:55	63.9	63.9	63.9	74	55.4	0	1	45	0.00	29.795 
05:00	63.9	63.9	63.9	74	55.4	0	0	---	0.00	29.799 
05:05	63.9	63.9	63.9	75	55.8	0	0	---	0.00	29.799 
05:10	64.0	64.0	64.0	75	55.9	0	0	---	0.00	29.799 
05:15	63.9	63.9	63.9	75	55.8	0	0	---	0.00	29.793 
05:20	63.9	63.9	63.9	75	55.8	0	1	45	0.00	29.793 
05:25	63.9	63.9	63.9	75	55.8	0	0	---	0.00	29.793 
05:30	63.9	63.9	63.9	76	56.2	0	0	---	0.00	29.806 
05:35	64.0	64.0	64.0	76	56.3	0	0	---	0.00	29.806 
05:40	64.0	64.0	64.0	77	56.6	0	1	45	0.00	29.806 
05:45	64.2	64.2	64.2	77	56.8	0	2	45	0.00	29.797 
05:50	64.2	64.2	64.2	80	57.9	0	3	45	0.01	29.797 
05:55	64.2	64.2	64.2	84	59.3	0	3	90	0.02	29.797 
06:00	64.0	64.0	64.0	84	59.1	0	0	---	0.02	29.789 
06:05	63.9	63.9	63.9	85	59.3	0	0	---	0.00	29.789 
06:10	63.5	63.5	63.5	86	59.2	0	0	---	0.01	29.789 
06:15	63.4	63.4	63.4	87	59.5	0	0	---	0.01	29.787 
06:20	63.4	63.4	63.4	88	59.8	0	0	---	0.01	29.787 
06:25	63.4	63.4	63.4	88	59.8	0	0	---	0.01	29.787 
06:30	63.4	63.4	63.4	89	60.1	0	0	---	0.01	29.794 
06:35	63.4	63.4	63.4	90	60.4	0	0	---	0.00	29.794 
06:40	63.5	63.5	63.5	90	60.5	0	1	90	0.01	29.794 
06:45	63.7	63.7	63.7	91	61.0	0	1	90	0.04	29.791 
06:50	63.9	63.9	63.9	92	61.5	0	1	90	0.12	29.791 
06:55	64.2	64.2	64.2	92	61.8	0	1	90	0.09	29.791 
07:00	64.3	64.3	64.3	92	61.9	0	0	---	0.07	29.790 
07:05	64.3	64.3	64.3	93	62.2	0	1	90	0.00	29.790 
07:10	64.5	64.5	64.5	93	62.4	0	1	90	0.00	29.790 
07:15	64.5	64.5	64.5	93	62.4	0	0	---	0.00	29.789 
07:20	64.5	64.5	64.5	93	62.4	0	0	---	0.00	29.789 
07:25	64.8	64.8	64.8	93	62.7	0	0	---	0.00	29.789 
07:30	65.0	65.0	65.0	94	63.2	0	0	---	0.02	29.793 
07:35	65.3	65.3	65.3	94	63.5	0	1	90	0.01	29.793 
07:40	65.6	65.6	65.6	94	63.8	0	1	90	0.00	29.793 
07:45	66.1	66.1	66.1	94	64.3	0	1	90	0.00	29.781 
07:50	66.3	66.3	66.3	94	64.5	0	1	90	0.00	29.781 
07:55	66.4	66.4	66.4	94	64.6	0	0	---	0.00	29.781 
08:00	66.6	66.6	66.6	94	64.8	0	0	---	0.00	29.796 
08:05	66.8	66.8	66.8	95	65.3	0	3	90	0.00	29.796 
08:10	66.8	66.8	66.8	95	65.3	1	3	90	0.10	29.796 
08:15	66.8	66.8	66.8	95	65.3	0	1	90	0.10	29.804 
08:20	66.9	66.9	66.9	95	65.4	0	2	90	0.02	29.804 
08:25	67.1	67.1	67.1	95	65.6	0	1	90	0.00	29.804 
08:30	67.3	67.3	67.3	95	65.8	0	1	90	0.00	29.796 
08:35	67.4	67.4	67.4	95	65.9	0	0	---	0.00	29.796 
08:40	67.6	67.6	67.6	95	66.1	0	1	90	0.00	29.796 
08:45	67.6	67.6	67.6	95	66.1	0	1	90	0.00	29.794 
08:50	67.6	67.6	67.6	95	66.1	0	0	---	0.00	29.794 
08:55	67.8	67.8	67.8	95	66.3	0	1	90	0.00	29.794 
09:00	67.9	67.9	67.9	95	66.4	0	2	90	0.00	29.781 
09:05	67.9	67.9	67.9	95	66.4	0	2	90	0.00	29.781 
09:10	68.3	68.3	68.3	96	67.1	0	2	90	0.00	29.781 
09:15	68.8	68.8	68.8	96	67.6	0	0	---	0.00	29.779 
09:20	69.3	69.3	69.3	96	68.1	0	0	---	0.00	29.779 
09:25	69.3	69.3	69.3	96	68.1	0	1	90	0.00	29.779 
09:30	69.6	69.6	69.6	96	68.4	0	1	90	0.00	29.764 
09:35	70.3	70.3	70.3	96	69.1	1	3	90	0.00	29.764 
09:40	70.8	70.8	70.8	96	69.6	1	4	90	0.00	29.764 
09:45	70.6	70.6	70.6	95	69.1	0	1	90	0.00	29.763 
09:50	70.4	70.4	70.4	95	68.9	0	2	90	0.00	29.763 
09:55	70.3	70.3	70.3	95	68.8	0	3	90	0.00	29.763 
10:00	70.3	70.3	70.3	95	68.8	0	3	90	0.00	29.763 
10:05	70.4	70.4	70.4	95	68.9	0	2	90	0.00	29.763 
10:10	70.4	70.4	70.4	95	68.9	0	2	90	0.00	29.763 
10:15	70.4	70.4	70.4	95	68.9	0	1	90	0.00	29.764 
10:20	70.6	70.6	70.6	95	69.1	0	1	90	0.00	29.764 
10:25	70.8	70.8	70.8	95	69.3	0	2	90	0.00	29.764 
10:30	71.3	71.3	71.3	94	69.5	0	2	90	0.00	29.751 
10:35	71.8	71.8	71.8	94	70.0	0	1	90	0.00	29.751 
10:40	72.0	72.0	72.0	93	69.9	0	1	90	0.00	29.751 
10:45	72.3	72.3	72.3	93	70.2	0	1	90	0.00	29.749 
10:50	73.3	73.3	73.3	93	71.1	0	2	90	0.00	29.749 
10:55	74.2	74.2	74.2	91	71.4	0	3	90	0.00	29.749 
11:00	74.4	74.4	74.4	89	70.9	0	2	90	0.00	29.746 
11:05	74.6	74.6	74.6	88	70.8	0	0	---	0.00	29.746 
11:10	74.4	74.4	74.4	87	70.3	0	1	90	0.00	29.746 
11:15	74.6	74.6	74.6	87	70.5	0	1	90	0.00	29.761 
11:20	74.6	74.6	74.6	87	70.5	0	1	90	0.00	29.761 
11:25	75.4	75.4	75.4	86	70.9	0	3	90	0.00	29.761 
11:30	75.8	75.8	76.4	83	70.3	0	3	90	0.00	29.763 
11:35	75.4	75.4	75.8	83	69.9	0	2	90	0.00	29.763 
11:40	76.0	76.0	76.7	84	70.8	0	2	90	0.00	29.763 
11:45	77.0	77.0	78.5	81	70.7	0	2	90	0.00	29.757 
11:50	77.4	77.4	79.2	80	70.7	1	3	90	0.00	29.757 
11:55	77.7	77.7	79.7	77	69.9	1	3	90	0.00	29.757 
12:00	78.5	78.5	81.0	76	70.3	1	3	90	0.00	29.757 
12:05	79.2	79.2	82.2	76	71.0	0	2	90	0.00	29.757 
12:10	79.2	79.2	82.1	75	70.6	1	3	90	0.00	29.757 
12:15	79.8	79.8	83.3	76	71.5	0	2	90	0.00	29.755 
12:20	79.8	79.8	83.1	74	70.8	0	1	90	0.00	29.755 
12:25	80.1	80.1	83.9	76	71.8	0	1	90	0.00	29.755 
12:30	79.8	79.8	83.0	73	70.4	1	3	90	0.00	29.756 
12:35	79.9	79.9	83.1	73	70.4	0	1	90	0.00	29.756 
12:40	80.7	80.7	84.6	73	71.2	0	3	90	0.00	29.756 
12:45	81.2	81.2	85.3	72	71.3	0	3	90	0.00	29.755 
12:50	81.8	81.8	86.5	72	71.9	0	2	90	0.00	29.755 
12:55	81.8	81.8	86.1	70	71.0	1	3	90	0.00	29.755 
13:00	82.4	82.4	87.2	70	71.6	0	2	90	0.00	29.746 
13:05	82.6	82.6	87.1	68	70.9	0	3	90	0.00	29.746 
13:10	82.6	82.6	87.1	68	70.9	1	3	90	0.00	29.746 
13:15	82.8	82.8	87.2	67	70.7	0	2	22	0.00	29.744 
13:20	83.4	83.4	88.9	69	72.1	0	1	338	0.00	29.744 
13:25	83.8	83.8	89.4	68	72.1	0	3	338	0.00	29.744 
13:30	84.0	84.0	88.6	64	70.5	0	3	338	0.00	29.740 
13:35	84.1	84.1	89.1	65	71.0	0	2	338	0.00	29.740 
13:40	84.5	84.5	90.2	66	71.9	0	3	68	0.00	29.740 
13:45	85.1	85.1	90.8	64	71.5	0	3	68	0.00	29.738 
13:50	85.5	85.5	91.2	63	71.4	1	4	45	0.00	29.738 
13:55	85.5	85.5	92.3	66	72.8	1	3	22	0.00	29.738 
14:00	85.5	85.5	91.6	64	71.9	0	4	338	0.00	29.736 
14:05	85.7	85.7	91.2	62	71.1	0	3	315	0.00	29.736 
14:10	85.5	85.5	90.8	62	71.0	1	4	248	0.00	29.736 
14:15	85.5	85.5	91.2	63	71.4	1	3	248	0.00	29.732 
14:20	85.5	85.5	91.9	65	72.4	1	3	248	0.00	29.732 
14:25	85.9	85.9	92.0	63	71.8	0	1	248	0.00	29.732 
14:30	85.9	85.9	91.6	62	71.3	0	2	248	0.00	29.731 
14:35	85.3	85.3	90.5	62	70.8	1	3	248	0.00	29.731 
14:40	85.1	85.1	90.1	62	70.6	2	6	270	0.00	29.731 
14:45	85.1	85.1	90.1	62	70.6	1	3	315	0.00	29.727 
14:50	85.3	85.3	90.5	62	70.8	1	4	315	0.00	29.727 
14:55	85.3	85.3	89.5	59	69.3	1	5	270	0.00	29.727 
15:00	85.5	85.5	89.5	58	69.0	2	4	270	0.00	29.725 
15:05	85.5	85.5	89.5	58	69.0	1	3	292	0.00	29.725 
15:10	85.1	85.1	89.1	59	69.1	1	4	292	0.00	29.725 
15:15	85.5	85.5	90.5	61	70.5	0	3	292	0.00	29.726 
15:20	86.1	86.1	91.3	60	70.6	1	3	292	0.00	29.726 
15:25	86.5	86.5	91.3	58	69.9	1	3	292	0.00	29.726 
15:30	87.0	87.0	91.1	55	68.8	1	3	292	0.00	29.716 
15:35	87.4	87.4	92.6	57	70.3	1	4	292	0.00	29.716 
15:40	87.6	87.6	91.8	54	68.9	2	5	292	0.00	29.716 
15:45	87.6	87.6	91.8	54	68.9	2	5	292	0.00	29.716 
15:50	87.4	87.4	91.5	54	68.7	1	4	292	0.00	29.716 
15:55	87.6	87.6	92.2	55	69.4	1	3	292	0.00	29.716 
16:00	87.8	87.8	92.2	54	69.0	1	2	292	0.00	29.705 
16:05	88.0	88.0	92.2	53	68.7	2	4	292	0.00	29.705 
16:10	88.0	88.0	92.6	54	69.2	1	3	292	0.00	29.705 
16:15	88.4	88.4	93.3	54	69.6	1	4	292	0.00	29.693 
16:20	88.6	88.6	92.5	51	68.1	1	4	292	0.00	29.693 
16:25	88.8	88.8	93.2	52	68.9	1	3	292	0.00	29.693 
16:30	88.6	88.6	92.9	52	68.7	2	5	292	0.00	29.691 
16:35	88.6	88.6	92.9	52	68.7	2	5	315	0.00	29.691 
16:40	88.4	88.4	92.9	53	69.1	2	5	292	0.00	29.691 
16:45	88.4	88.4	93.3	54	69.6	1	5	292	0.00	29.685 
16:50	88.6	88.6	92.1	50	67.5	2	4	292	0.00	29.685 
16:55	88.4	88.4	92.1	51	67.9	1	3	292	0.00	29.685 
17:00	88.6	88.6	92.9	52	68.7	1	3	292	0.00	29.678 
17:05	88.6	88.6	92.9	52	68.7	1	3	292	0.00	29.678 
17:10	89.3	89.3	94.2	52	69.3	1	2	292	0.00	29.678 
17:15	89.7	89.7	94.5	51	69.1	1	3	292	0.00	29.675 
17:20	89.7	89.7	94.0	50	68.5	2	3	292	0.00	29.675 
17:25	89.5	89.5	94.5	52	69.5	1	3	292	0.00	29.675 
17:30	89.7	89.7	93.6	49	68.0	1	3	292	0.00	29.675 
17:35	89.5	89.5	93.2	49	67.8	1	2	292	0.00	29.675 
17:40	89.3	89.3	93.3	50	68.2	0	3	292	0.00	29.675 
17:45	88.4	88.4	92.9	53	69.1	1	3	292	0.00	29.678 
17:50	88.0	88.0	92.6	54	69.2	0	1	292	0.00	29.678 
17:55	88.2	88.2	92.9	54	69.4	0	1	292	0.00	29.678 
18:00	88.2	88.2	92.1	52	68.3	0	2	292	0.00	29.684 
18:05	87.8	87.8	91.4	52	67.9	1	2	292	0.00	29.684 
18:10	87.2	87.2	90.8	53	67.9	0	1	292	0.00	29.684 
18:15	86.7	86.7	90.3	54	68.0	0	2	292	0.00	29.678 
18:20	86.3	86.3	89.9	55	68.2	0	2	292	0.00	29.678 
18:25	86.1	86.1	90.2	57	69.1	1	2	292	0.00	29.678 
18:30	85.7	85.7	90.5	60	70.2	0	2	292	0.00	29.694 
18:35	84.9	84.9	89.7	62	70.4	0	2	292	0.00	29.694 
18:40	84.1	84.1	88.5	63	70.1	1	3	292	0.00	29.694 
18:45	83.6	83.6	88.5	66	71.0	0	1	292	0.00	29.702 
18:50	82.8	82.8	87.5	68	71.1	1	4	292	0.00	29.702 
18:55	81.4	81.4	85.1	69	70.2	1	4	292	0.00	29.702 
19:00	79.4	79.4	81.6	65	66.6	1	3	292	0.01	29.711 
19:05	78.1	78.1	80.0	67	66.2	0	1	292	0.00	29.711 
19:10	77.2	77.2	79.0	68	65.8	0	1	292	0.00	29.711 
19:15	76.8	76.8	78.5	70	66.3	0	1	292	0.00	29.698 
19:20	76.5	76.5	78.2	70	66.0	0	0	---	0.00	29.698 
19:25	76.5	76.5	78.1	73	67.2	0	1	292	0.00	29.698 
19:30	76.1	76.1	77.5	75	67.6	0	1	292	0.00	29.728 
19:35	76.0	76.0	77.4	75	67.5	0	0	---	0.00	29.728 
19:40	75.8	75.8	77.1	75	67.3	0	0	---	0.00	29.728 
19:45	75.6	75.6	76.8	76	67.5	0	0	---	0.00	29.726 
19:50	75.4	75.4	76.5	76	67.3	0	0	---	0.00	29.726 
19:55	75.4	75.4	76.4	77	67.7	0	0	---	0.00	29.726 
20:00	75.3	75.3	76.2	78	68.0	0	0	---	0.00	29.722 
20:05	75.1	75.1	76.0	78	67.8	0	1	292	0.00	29.722 
20:10	75.1	75.1	75.8	79	68.1	0	1	292	0.00	29.722 
20:15	75.1	75.1	75.7	80	68.5	0	0	---	0.00	29.715 
20:20	74.9	74.9	74.9	78	67.6	0	1	292	0.00	29.715 
20:25	74.6	74.6	74.6	74	65.7	0	1	292	0.00	29.715 
20:30	74.6	74.6	74.6	68	63.3	0	2	292	0.00	29.702 
20:35	74.7	74.7	74.7	66	62.6	0	1	292	0.00	29.702 
20:40	74.9	74.9	74.9	66	62.8	0	0	---	0.00	29.702 
20:45	74.9	74.9	74.9	66	62.8	0	0	---	0.00	29.701 
20:50	74.7	74.7	74.7	66	62.6	0	0	---	0.00	29.701 
20:55	74.7	74.7	74.7	66	62.6	0	0	---	0.00	29.701 
21:00	74.7	74.7	74.7	66	62.6	0	0	---	0.00	29.703 
21:05	74.6	74.6	74.6	67	62.9	0	0	---	0.00	29.703 
21:10	74.6	74.6	74.6	68	63.3	0	0	---	0.00	29.703 
21:15	74.6	74.6	74.6	70	64.2	0	1	292	0.00	29.706 
21:20	74.2	74.2	74.2	69	63.4	0	1	292	0.00	29.706 
21:25	74.2	74.2	74.2	70	63.8	0	1	292	0.00	29.706 
21:30	74.2	74.2	74.2	71	64.2	0	1	292	0.00	29.700 
21:35	74.0	74.0	74.0	73	64.8	0	0	---	0.00	29.700 
21:40	74.0	74.0	74.0	74	65.2	0	0	---	0.00	29.700 
21:45	73.9	73.9	73.9	76	65.8	0	1	292	0.00	29.701 
21:50	73.7	73.7	73.7	77	66.0	0	1	292	0.00	29.701 
21:55	73.7	73.7	73.7	79	66.8	0	1	292	0.00	29.701 
22:00	73.5	73.5	73.5	79	66.6	0	0	---	0.00	29.700 
22:05	73.5	73.5	73.5	81	67.3	0	1	292	0.00	29.700 
22:10	73.3	73.3	73.3	82	67.5	0	1	292	0.00	29.700 
22:15	73.3	73.3	73.3	83	67.8	0	1	292	0.00	29.699 
22:20	73.3	73.3	73.3	83	67.8	0	0	---	0.00	29.699 
22:25	73.3	73.3	73.3	84	68.2	0	0	---	0.00	29.699 
22:30	73.2	73.2	73.2	84	68.1	0	0	---	0.00	29.704 
22:35	73.2	73.2	73.2	84	68.1	0	1	292	0.00	29.704 
22:40	73.2	73.2	73.2	84	68.1	0	1	292	0.00	29.704 
22:45	73.2	73.2	73.2	84	68.1	0	1	292	0.00	29.708 
22:50	73.3	73.3	73.3	84	68.2	0	0	---	0.00	29.708 
22:55	73.3	73.3	73.3	83	67.8	0	1	292	0.00	29.708 
23:00	73.3	73.3	73.3	83	67.8	0	1	292	0.00	29.710 
23:05	73.3	73.3	73.3	83	67.8	0	0	---	0.00	29.710 
23:10	73.3	73.3	73.3	83	67.8	0	1	292	0.00	29.710 
23:15	73.2	73.2	73.2	83	67.7	0	1	292	0.00	29.708 
23:20	73.2	73.2	73.2	83	67.7	0	0	---	0.00	29.708 
23:25	73.2	73.2	73.2	83	67.7	0	1	292	0.00	29.708 
23:30	73.0	73.0	73.0	83	67.5	0	0	---	0.00	29.708 
23:35	73.0	73.0	73.0	83	67.5	0	1	292	0.00	29.708 
23:40	73.0	73.0	73.0	83	67.5	0	1	292	0.00	29.708 
23:45	73.0	73.0	73.0	83	67.5	0	1	292	0.00	29.707 
23:50	73.0	73.0	73.0	83	67.5	0	0	---	0.00	29.707 
23:55	72.8	72.8	72.8	83	67.3	0	0	---	0.00	29.707 

CoCoRaHS
IN-AL-39
A2 Web Hosting
Creative Commons License
GoDaddy
search engine by freefind advanced

loaded 2018-11-20 14:24:37 • last modified 2010-11-18 10:43:29
Privacy PolicyDisclaimer
• wx.awcolley.com is powered by PmWiki v.2002016 •
• all content (unless otherwise noted) © 2018 A W Colley